Time;durP1;ratioP1;P1;durP2;ratioP2;P2;SDS_P1;SDS_P2;PMS_P1;PMS_P2;Temp;Humidity;BMP_temperature;BMP_pressure;BME280_temperature;BME280_humidity;BME280_pressure;Samples;Min_cycle;Max_cycle;Signal;HPM_P1;HPM_P2
2020/12/31 00:01:31;;;;;;;12.47;11.57;;;1.70;99.90;;;;;;6071241;23;20417;-76
2020/12/31 00:03:57;;;;;;;12.70;11.80;;;1.60;99.90;;;;;;6094707;23;20408;-77
2020/12/31 00:06:23;;;;;;;13.50;12.40;;;1.50;99.90;;;;;;6070680;23;20411;-76
2020/12/31 00:08:50;;;;;;;13.57;12.43;;;1.40;99.90;;;;;;6094589;23;20434;-77
2020/12/31 00:11:16;;;;;;;13.60;12.57;;;1.40;99.90;;;;;;6071113;23;20895;-79
2020/12/31 00:13:42;;;;;;;14.17;12.83;;;1.30;99.90;;;;;;6097843;23;20434;-79
2020/12/31 00:16:10;;;;;;;13.50;12.40;;;1.30;99.90;;;;;;6097983;23;20410;-78
2020/12/31 00:18:36;;;;;;;14.10;13.00;;;1.20;99.90;;;;;;6098153;23;20402;-78
2020/12/31 00:21:03;;;;;;;13.57;12.50;;;1.20;99.90;;;;;;6099950;23;20710;-79
2020/12/31 00:23:29;;;;;;;13.30;12.30;;;1.10;99.90;;;;;;6099643;23;20403;-78
2020/12/31 00:25:56;;;;;;;13.27;12.13;;;1.10;99.90;;;;;;6100350;23;20730;-78
2020/12/31 00:28:22;;;;;;;13.60;12.40;;;1.00;99.90;;;;;;6074777;23;20749;-79
2020/12/31 00:30:50;;;;;;;13.13;12.17;;;1.00;99.90;;;;;;6099679;23;20408;-78
2020/12/31 00:33:18;;;;;;;12.87;11.87;;;1.00;99.90;;;;;;6074556;23;20897;-78
2020/12/31 00:35:45;;;;;;;12.70;11.80;;;0.90;99.90;;;;;;6074614;23;20414;-79
2020/12/31 00:38:11;;;;;;;12.83;11.90;;;0.90;99.90;;;;;;6100016;23;20401;-79
2020/12/31 00:40:38;;;;;;;12.10;11.23;;;0.80;99.90;;;;;;6097985;23;20449;-76
2020/12/31 00:43:04;;;;;;;12.10;11.20;;;0.70;99.90;;;;;;6096811;23;20425;-78
2020/12/31 00:45:31;;;;;;;12.10;11.30;;;0.70;99.90;;;;;;6073295;23;20411;-77
2020/12/31 00:47:57;;;;;;;12.17;11.37;;;0.60;99.90;;;;;;6098621;23;20406;-77
2020/12/31 00:50:24;;;;;;;12.70;11.80;;;0.60;99.90;;;;;;6072691;23;20760;-76
2020/12/31 00:52:51;;;;;;;12.67;11.67;;;0.50;99.90;;;;;;6072989;23;20422;-77
2020/12/31 00:55:18;;;;;;;12.40;11.50;;;0.50;99.90;;;;;;6072837;23;20823;-77
2020/12/31 00:57:46;;;;;;;12.37;11.47;;;0.50;99.90;;;;;;6072988;23;20418;-76
2020/12/31 01:00:14;;;;;;;12.87;11.97;;;0.40;99.90;;;;;;6096490;23;20430;-77
2020/12/31 01:02:58;;;;;;;12.93;11.93;;;0.40;99.90;;;;;;6073037;23;20446;-77
2020/12/31 01:05:25;;;;;;;12.47;11.47;;;0.40;99.90;;;;;;6098474;23;20904;-77
2020/12/31 01:07:52;;;;;;;13.20;12.27;;;0.40;99.90;;;;;;6099089;23;20877;-77
2020/12/31 01:10:18;;;;;;;13.20;12.10;;;0.40;99.90;;;;;;6097535;23;20489;-77
2020/12/31 01:12:44;;;;;;;14.37;13.17;;;0.40;99.90;;;;;;6099375;23;20912;-77
2020/12/31 01:15:11;;;;;;;13.57;12.47;;;0.40;99.90;;;;;;6099523;23;21216;-77
2020/12/31 01:17:37;;;;;;;13.40;12.30;;;0.30;99.90;;;;;;6100309;23;20378;-79
2020/12/31 01:20:04;;;;;;;13.20;12.17;;;0.30;99.90;;;;;;6074137;23;20488;-78
2020/12/31 01:22:31;;;;;;;12.90;12.00;;;0.30;99.90;;;;;;6073219;23;20441;-76
2020/12/31 01:24:58;;;;;;;13.03;12.03;;;0.30;99.90;;;;;;6098227;23;20390;-76
2020/12/31 01:27:25;;;;;;;12.73;11.83;;;0.30;99.90;;;;;;6072715;23;20771;-76
2020/12/31 01:29:51;;;;;;;13.43;12.20;;;0.30;99.90;;;;;;6072298;23;20446;-77
2020/12/31 01:32:22;;;;;;;14.63;12.87;;;0.40;99.90;;;;;;6072468;23;20421;-77
2020/12/31 01:34:48;;;;;;;14.63;13.23;;;0.50;99.90;;;;;;6072961;23;20971;-77
2020/12/31 01:37:16;;;;;;;14.70;13.07;;;0.50;99.90;;;;;;6072609;23;20406;-76
2020/12/31 01:39:44;;;;;;;16.00;13.93;;;0.60;99.90;;;;;;6097784;23;20414;-77
2020/12/31 01:42:10;;;;;;;14.80;13.20;;;0.60;99.90;;;;;;6072680;23;20749;-77
2020/12/31 01:44:36;;;;;;;16.40;13.50;;;0.70;99.90;;;;;;6074591;23;20429;-78
2020/12/31 01:47:03;;;;;;;14.43;12.97;;;0.70;99.90;;;;;;6097946;23;20414;-80
2020/12/31 01:49:32;;;;;;;14.17;12.97;;;0.70;99.90;;;;;;6099005;23;20414;-79
2020/12/31 01:52:00;;;;;;;13.97;12.77;;;0.80;99.90;;;;;;6099552;23;20390;-78
2020/12/31 01:54:26;;;;;;;13.20;12.30;;;0.80;99.90;;;;;;6097738;23;20451;-79
2020/12/31 01:56:56;;;;;;;12.83;11.90;;;0.90;99.90;;;;;;6073484;23;20425;-79
2020/12/31 01:59:23;;;;;;;13.00;12.00;;;1.00;99.90;;;;;;6073134;23;20438;-79
2020/12/31 02:01:50;;;;;;;12.43;11.60;;;1.00;99.90;;;;;;6073727;23;20471;-79
2020/12/31 02:04:16;;;;;;;12.97;11.97;;;1.10;99.90;;;;;;6099095;23;20397;-78
2020/12/31 02:06:43;;;;;;;12.23;11.43;;;1.10;99.90;;;;;;6073924;23;20417;-79
2020/12/31 02:09:10;;;;;;;12.77;11.87;;;1.20;99.90;;;;;;6098587;23;20795;-79
2020/12/31 02:11:36;;;;;;;12.87;11.90;;;1.20;99.90;;;;;;6098768;23;20390;-79
2020/12/31 02:14:04;;;;;;;12.63;11.77;;;1.20;99.90;;;;;;6098837;23;20469;-80
2020/12/31 02:16:35;;;;;;;12.47;11.67;;;1.20;99.90;;;;;;6073224;23;20981;-79
2020/12/31 02:19:04;;;;;;;12.80;11.80;;;1.30;99.90;;;;;;6072640;23;20443;-79
2020/12/31 02:21:31;;;;;;;12.67;11.77;;;1.30;99.90;;;;;;6098767;23;20720;-79
2020/12/31 02:23:59;;;;;;;12.30;11.40;;;1.30;99.90;;;;;;6098656;23;20446;-79
2020/12/31 02:26:27;;;;;;;12.30;11.50;;;1.30;99.90;;;;;;6073185;23;20466;-79
2020/12/31 02:28:55;;;;;;;12.90;12.00;;;1.30;99.90;;;;;;6072719;23;20442;-78
2020/12/31 02:31:21;;;;;;;13.00;12.20;;;1.40;99.90;;;;;;6097954;23;20532;-79
2020/12/31 02:33:49;;;;;;;12.77;11.93;;;1.40;99.90;;;;;;6097911;23;20430;-80
2020/12/31 02:36:16;;;;;;;12.67;11.77;;;1.40;99.90;;;;;;6072799;23;20511;-79
2020/12/31 02:38:44;;;;;;;13.00;12.10;;;1.40;99.90;;;;;;6098287;23;20395;-79
2020/12/31 02:41:11;;;;;;;13.20;12.20;;;1.50;99.90;;;;;;6072625;23;20417;-79
2020/12/31 02:43:38;;;;;;;13.20;12.30;;;1.50;99.90;;;;;;6098148;23;20936;-78
2020/12/31 02:46:06;;;;;;;13.80;12.70;;;1.50;99.90;;;;;;6098058;23;20442;-79
2020/12/31 02:48:32;;;;;;;13.77;12.73;;;1.40;99.90;;;;;;6097610;23;20395;-79
2020/12/31 02:50:59;;;;;;;13.67;12.60;;;1.40;99.90;;;;;;6072759;23;20425;-79
2020/12/31 02:53:26;;;;;;;14.73;13.40;;;1.30;99.90;;;;;;6072762;23;20422;-79
2020/12/31 02:55:52;;;;;;;14.87;13.53;;;1.20;99.90;;;;;;6098587;23;20409;-79
2020/12/31 02:58:19;;;;;;;15.30;14.10;;;1.20;99.90;;;;;;6097654;23;20747;-79
2020/12/31 03:00:46;;;;;;;16.37;14.73;;;1.10;99.90;;;;;;6073425;23;20446;-79
2020/12/31 03:03:12;;;;;;;16.27;14.83;;;1.00;99.90;;;;;;6073076;23;20427;-79
2020/12/31 03:05:38;;;;;;;15.83;14.43;;;1.00;99.90;;;;;;6098441;23;20883;-79
2020/12/31 03:08:05;;;;;;;15.03;13.73;;;0.90;99.90;;;;;;6073055;23;20418;-79
2020/12/31 03:10:31;;;;;;;14.33;13.03;;;0.80;99.90;;;;;;6098248;23;20910;-79
2020/12/31 03:12:58;;;;;;;14.93;13.63;;;0.80;99.90;;;;;;6098721;23;20947;-78
2020/12/31 03:15:25;;;;;;;14.63;13.43;;;0.70;99.90;;;;;;6098410;23;20438;-79
2020/12/31 03:17:51;;;;;;;15.57;14.33;;;0.70;99.90;;;;;;6098371;23;20390;-79
2020/12/31 03:20:18;;;;;;;14.83;13.63;;;0.60;99.90;;;;;;6072744;23;20442;-80
2020/12/31 03:22:44;;;;;;;14.83;13.70;;;0.60;99.90;;;;;;6071924;23;20414;-78
2020/12/31 03:25:10;;;;;;;14.20;13.10;;;0.60;99.90;;;;;;6071557;23;20511;-77
2020/12/31 03:27:37;;;;;;;13.23;12.33;;;0.70;99.90;;;;;;6096843;23;20418;-76
2020/12/31 03:30:05;;;;;;;12.60;11.70;;;0.70;99.90;;;;;;6096196;23;20415;-78
2020/12/31 03:32:32;;;;;;;12.67;11.77;;;0.80;99.90;;;;;;6071221;23;20414;-77
2020/12/31 03:34:58;;;;;;;12.00;11.20;;;0.90;99.90;;;;;;6073038;23;20842;-79
2020/12/31 03:37:25;;;;;;;12.17;11.37;;;0.90;99.90;;;;;;6098459;23;20394;-77
2020/12/31 03:39:51;;;;;;;12.13;11.33;;;0.90;99.90;;;;;;6070466;23;20754;-78
2020/12/31 03:42:18;;;;;;;11.60;10.90;;;0.90;99.90;;;;;;6071069;23;20952;-77
2020/12/31 03:44:44;;;;;;;11.77;11.03;;;1.00;99.90;;;;;;6096827;23;20387;-76
2020/12/31 03:47:10;;;;;;;11.60;10.90;;;1.00;99.90;;;;;;6096019;23;20398;-78
2020/12/31 03:49:37;;;;;;;11.27;10.57;;;1.00;99.90;;;;;;6072062;23;20936;-76
2020/12/31 03:52:04;;;;;;;11.07;10.37;;;1.00;99.90;;;;;;6096817;23;20390;-77
2020/12/31 03:54:30;;;;;;;11.10;10.40;;;1.00;99.90;;;;;;6097388;23;20430;-76
2020/12/31 03:56:56;;;;;;;11.37;10.67;;;1.10;99.90;;;;;;6071553;23;20421;-77
2020/12/31 03:59:23;;;;;;;11.50;10.80;;;1.10;99.90;;;;;;6096634;23;20469;-77
2020/12/31 04:01:49;;;;;;;11.50;10.80;;;1.10;99.90;;;;;;6097007;23;20390;-77
2020/12/31 04:04:15;;;;;;;11.57;10.87;;;1.10;99.90;;;;;;6097782;23;20395;-76
2020/12/31 04:06:42;;;;;;;11.67;10.97;;;1.10;99.90;;;;;;6071833;23;20421;-77
2020/12/31 04:09:08;;;;;;;11.80;11.10;;;1.10;99.90;;;;;;6073512;23;20811;-79
2020/12/31 04:11:35;;;;;;;11.97;11.27;;;1.10;99.90;;;;;;6074420;23;20465;-78
2020/12/31 04:14:01;;;;;;;12.20;11.40;;;1.10;99.90;;;;;;6096909;23;20821;-80
2020/12/31 04:16:27;;;;;;;12.30;11.60;;;1.10;99.90;;;;;;6097575;23;20430;-78
2020/12/31 04:18:54;;;;;;;13.13;12.23;;;1.00;99.90;;;;;;6100202;23;20415;-79
2020/12/31 04:21:21;;;;;;;13.17;12.27;;;1.00;99.90;;;;;;6074940;23;20418;-78
2020/12/31 04:23:49;;;;;;;12.43;11.70;;;1.00;99.90;;;;;;6075340;23;20409;-78
2020/12/31 04:26:15;;;;;;;13.13;12.23;;;1.00;99.90;;;;;;6099407;23;20437;-79
2020/12/31 04:28:42;;;;;;;13.23;12.33;;;1.00;99.90;;;;;;6098544;23;20394;-79
2020/12/31 04:31:08;;;;;;;13.43;12.57;;;0.90;99.90;;;;;;6073442;23;20484;-78
2020/12/31 04:33:34;;;;;;;13.20;12.30;;;0.90;99.90;;;;;;6073189;23;20819;-79
2020/12/31 04:36:01;;;;;;;13.17;12.27;;;0.90;99.90;;;;;;6072124;23;20406;-78
2020/12/31 04:38:27;;;;;;;13.30;12.37;;;0.90;99.90;;;;;;6095901;23;20422;-79
2020/12/31 04:40:56;;;;;;;13.57;12.63;;;0.90;99.90;;;;;;6098395;23;20470;-79
2020/12/31 04:43:22;;;;;;;13.30;12.40;;;0.90;99.90;;;;;;6096169;23;20878;-77
2020/12/31 04:45:49;;;;;;;12.90;12.00;;;0.90;99.90;;;;;;6096405;23;20482;-77
2020/12/31 04:48:26;;;;;;;13.57;12.67;;;0.90;99.90;;;;;;6094818;23;20445;-77
2020/12/31 04:50:58;;;;;;;13.83;12.90;;;0.90;99.90;;;;;;6072617;23;20492;-78
2020/12/31 04:53:25;;;;;;;13.57;12.57;;;0.90;99.90;;;;;;6097084;23;20406;-79
2020/12/31 04:55:52;;;;;;;13.33;12.43;;;0.90;99.90;;;;;;6073461;23;20855;-79
2020/12/31 04:58:19;;;;;;;12.97;12.07;;;0.90;99.90;;;;;;6098998;23;20390;-77
2020/12/31 05:00:46;;;;;;;13.27;12.30;;;0.90;99.90;;;;;;6070839;23;20442;-76
2020/12/31 05:03:13;;;;;;;13.10;12.17;;;0.80;99.90;;;;;;6096909;23;20391;-76
2020/12/31 05:05:40;;;;;;;13.50;12.50;;;0.80;99.90;;;;;;6097884;23;20861;-76
2020/12/31 05:08:07;;;;;;;12.93;11.90;;;0.80;99.90;;;;;;6072986;23;20414;-78
2020/12/31 05:10:34;;;;;;;13.57;12.50;;;0.80;99.90;;;;;;6098115;23;20418;-77
2020/12/31 05:13:01;;;;;;;13.20;12.20;;;0.80;99.90;;;;;;6074478;23;20410;-78
2020/12/31 05:15:36;;;;;;;13.10;12.10;;;0.80;99.90;;;;;;6099720;23;20437;-78
2020/12/31 05:18:20;;;;;;;12.77;11.83;;;0.80;99.90;;;;;;6075215;23;20424;-80
2020/12/31 05:20:48;;;;;;;12.63;11.73;;;0.80;99.90;;;;;;6073880;23;20454;-78
2020/12/31 05:23:16;;;;;;;13.00;12.10;;;0.80;99.90;;;;;;6098148;23;20390;-77
2020/12/31 05:25:42;;;;;;;12.93;11.93;;;0.70;99.90;;;;;;6097856;23;20884;-76
2020/12/31 05:28:25;;;;;;;13.07;12.17;;;0.70;99.90;;;;;;6097701;23;20390;-77
2020/12/31 05:30:55;;;;;;;13.33;12.33;;;0.70;99.90;;;;;;6098727;23;20414;-77
2020/12/31 05:33:29;;;;;;;12.50;11.70;;;0.70;99.90;;;;;;6097500;23;20397;-76
2020/12/31 05:36:16;;;;;;;12.77;11.97;;;0.70;99.90;;;;;;6075081;23;20465;-79
2020/12/31 05:38:44;;;;;;;13.00;12.10;;;0.70;99.90;;;;;;6074449;23;20767;-79
2020/12/31 05:41:11;;;;;;;13.03;12.13;;;0.70;99.90;;;;;;6100911;23;20390;-78
2020/12/31 05:43:39;;;;;;;13.17;12.27;;;0.70;99.90;;;;;;6101190;23;20394;-78
2020/12/31 05:46:11;;;;;;;12.93;11.97;;;0.70;99.90;;;;;;6075674;23;20414;-79
2020/12/31 05:48:38;;;;;;;13.00;12.10;;;0.70;99.90;;;;;;6075447;23;20885;-79
2020/12/31 05:51:21;;;;;;;13.70;12.80;;;0.70;99.90;;;;;;6100340;23;20391;-79
2020/12/31 05:53:51;;;;;;;13.60;12.70;;;0.80;99.90;;;;;;6074657;23;20469;-79
2020/12/31 05:56:18;;;;;;;13.90;12.90;;;0.80;99.90;;;;;;6074846;23;20771;-78
2020/12/31 05:58:46;;;;;;;14.27;13.27;;;0.80;99.90;;;;;;6074431;23;20417;-78
2020/12/31 06:01:14;;;;;;;13.97;12.97;;;0.80;99.90;;;;;;6075330;23;20449;-78
2020/12/31 06:03:52;;;;;;;14.33;13.23;;;0.80;99.90;;;;;;6074735;23;20419;-79
2020/12/31 06:06:23;;;;;;;15.43;14.13;;;0.80;99.90;;;;;;6074635;23;20409;-79
2020/12/31 06:09:04;;;;;;;15.40;14.03;;;0.90;99.90;;;;;;6099239;23;20453;-80
2020/12/31 06:11:32;;;;;;;14.80;13.70;;;0.90;99.90;;;;;;6074015;23;20477;-79
2020/12/31 06:14:01;;;;;;;15.63;14.33;;;0.90;99.90;;;;;;6101872;23;20438;-79
2020/12/31 06:16:35;;;;;;;15.10;14.00;;;0.90;99.90;;;;;;6075148;23;20484;-80
2020/12/31 06:19:11;;;;;;;15.40;14.20;;;0.90;99.90;;;;;;6099506;23;20803;-78
2020/12/31 06:21:41;;;;;;;14.83;13.73;;;0.90;99.90;;;;;;6102217;23;20703;-79
2020/12/31 06:24:12;;;;;;;15.10;14.00;;;0.90;99.90;;;;;;6075176;23;20517;-79
2020/12/31 06:26:40;;;;;;;16.10;14.77;;;0.90;99.90;;;;;;6073904;23;20441;-79
2020/12/31 06:29:07;;;;;;;15.70;14.40;;;0.90;99.90;;;;;;6073892;23;20438;-81
2020/12/31 06:31:35;;;;;;;15.37;14.27;;;0.90;99.90;;;;;;6097780;23;20394;-80
2020/12/31 06:34:02;;;;;;;15.57;14.43;;;0.90;99.90;;;;;;6072555;23;20786;-80
2020/12/31 06:36:34;;;;;;;15.40;14.20;;;0.90;99.90;;;;;;6072573;23;20906;-80
2020/12/31 06:39:02;;;;;;;14.83;13.63;;;1.00;99.90;;;;;;6072211;23;20525;-80
2020/12/31 06:41:41;;;;;;;16.53;15.13;;;1.00;99.90;;;;;;6098248;23;20793;-80
2020/12/31 06:44:10;;;;;;;15.70;14.20;;;1.00;99.90;;;;;;6072892;23;20403;-79
2020/12/31 06:46:41;;;;;;;15.70;14.40;;;1.00;99.90;;;;;;6098719;23;20431;-79
2020/12/31 06:49:08;;;;;;;15.10;13.97;;;1.10;99.90;;;;;;6097676;23;20746;-79
2020/12/31 06:51:35;;;;;;;15.10;13.90;;;1.10;99.90;;;;;;6072729;23;20406;-78
2020/12/31 06:54:01;;;;;;;15.40;14.20;;;1.10;99.90;;;;;;6096995;23;20390;-77
2020/12/31 06:56:45;;;;;;;15.60;14.30;;;1.20;99.90;;;;;;6097137;23;20390;-79
2020/12/31 06:59:24;;;;;;;15.50;14.10;;;1.20;99.90;;;;;;6099300;23;20473;-79
2020/12/31 07:01:51;;;;;;;16.20;14.90;;;1.20;99.90;;;;;;6097931;23;20390;-78
2020/12/31 07:04:28;;;;;;;16.73;15.23;;;1.30;99.90;;;;;;6073315;23;20417;-79
2020/12/31 07:06:55;;;;;;;16.37;14.97;;;1.30;99.90;;;;;;6071348;23;20406;-77
2020/12/31 07:09:31;;;;;;;15.87;14.67;;;1.40;99.90;;;;;;6097157;23;20418;-79
2020/12/31 07:11:58;;;;;;;15.37;14.27;;;1.40;99.90;;;;;;6101426;23;20390;-78
2020/12/31 07:14:26;;;;;;;15.60;14.40;;;1.40;99.90;;;;;;6075676;23;20438;-79
2020/12/31 07:16:58;;;;;;;14.97;13.77;;;1.50;99.90;;;;;;6074225;23;20429;-78
2020/12/31 07:19:39;;;;;;;14.97;13.87;;;1.50;99.90;;;;;;6099109;23;20418;-78
2020/12/31 07:22:19;;;;;;;15.37;14.17;;;1.60;99.90;;;;;;6074907;23;20414;-78
2020/12/31 07:24:48;;;;;;;15.43;14.23;;;1.60;99.90;;;;;;6100876;23;20379;-79
2020/12/31 07:27:30;;;;;;;16.77;15.37;;;1.60;99.90;;;;;;6100453;23;20423;-78
2020/12/31 07:30:11;;;;;;;16.70;15.43;;;1.70;99.90;;;;;;6073821;23;20444;-80
2020/12/31 07:33:06;;;;;;;16.93;15.63;;;1.70;99.90;;;;;;6098804;23;20854;-78
2020/12/31 07:35:37;;;;;;;16.53;15.33;;;1.80;99.90;;;;;;6072834;23;20525;-82
2020/12/31 07:38:06;;;;;;;16.43;15.13;;;1.80;99.90;;;;;;6071493;23;20398;-77
2020/12/31 07:40:38;;;;;;;16.00;14.80;;;1.90;99.90;;;;;;6097577;23;20409;-79
2020/12/31 07:43:06;;;;;;;15.83;14.63;;;1.90;99.90;;;;;;6072869;23;20415;-79
2020/12/31 07:45:32;;;;;;;16.90;15.57;;;1.90;99.90;;;;;;6098282;23;20390;-79
2020/12/31 07:48:00;;;;;;;16.00;14.70;;;2.00;99.90;;;;;;6098987;23;20892;-79
2020/12/31 07:50:27;;;;;;;16.70;15.30;;;2.00;99.90;;;;;;6098651;23;20415;-79
2020/12/31 07:52:54;;;;;;;16.50;15.20;;;2.10;99.90;;;;;;6072925;23;20413;-76
2020/12/31 07:55:21;;;;;;;16.13;14.80;;;2.10;99.90;;;;;;6095834;23;20429;-76
2020/12/31 07:57:48;;;;;;;16.20;14.90;;;2.20;99.90;;;;;;6070661;23;20414;-78
2020/12/31 08:00:16;;;;;;;16.17;14.97;;;2.30;99.90;;;;;;6070075;23;20783;-78
2020/12/31 08:02:46;;;;;;;15.20;14.00;;;2.30;99.90;;;;;;6070986;23;20410;-77
2020/12/31 08:05:14;;;;;;;16.13;14.83;;;2.40;99.90;;;;;;6070842;23;20759;-78
2020/12/31 08:07:41;;;;;;;15.97;14.77;;;2.40;99.90;;;;;;6096115;23;20821;-78
2020/12/31 08:10:08;;;;;;;14.47;13.37;;;2.50;99.90;;;;;;6096176;23;20413;-76
2020/12/31 08:12:35;;;;;;;15.50;14.30;;;2.60;99.90;;;;;;6070934;23;20479;-77
2020/12/31 08:15:02;;;;;;;15.40;14.20;;;2.70;99.90;;;;;;6070075;23;20435;-77
2020/12/31 08:17:28;;;;;;;16.03;14.73;;;2.70;99.90;;;;;;6070306;23;20424;-77
2020/12/31 08:19:56;;;;;;;16.00;14.70;;;2.70;99.90;;;;;;6094806;23;20420;-77
2020/12/31 08:22:32;;;;;;;16.83;15.43;;;2.80;99.90;;;;;;6095371;23;20394;-77
2020/12/31 08:25:03;;;;;;;16.10;14.80;;;2.80;99.90;;;;;;6094540;23;20386;-76
2020/12/31 08:27:30;;;;;;;16.60;15.30;;;2.80;99.90;;;;;;6094914;23;20376;-76
2020/12/31 08:29:58;;;;;;;16.13;14.83;;;2.90;99.90;;;;;;6068863;23;20442;-76
2020/12/31 08:32:27;;;;;;;16.20;14.90;;;2.90;99.90;;;;;;6068949;23;20965;-76
2020/12/31 08:34:56;;;;;;;15.93;14.70;;;2.90;99.90;;;;;;6094638;23;20776;-76
2020/12/31 08:37:24;;;;;;;16.30;14.80;;;3.00;99.90;;;;;;6069175;23;20441;-76
2020/12/31 08:39:53;;;;;;;15.90;14.60;;;3.10;99.90;;;;;;6069699;23;20457;-76
2020/12/31 08:42:22;;;;;;;9.60;8.67;;;3.20;99.90;;;;;;6070940;23;20421;-76
2020/12/31 08:44:54;;;;;;;12.13;10.93;;;3.20;99.90;;;;;;6096560;23;20865;-76
2020/12/31 08:47:22;;;;;;;8.33;6.70;;;3.30;99.90;;;;;;6096648;23;20900;-77
2020/12/31 08:49:53;;;;;;;7.23;6.30;;;3.40;99.90;;;;;;6096655;23;20414;-77
2020/12/31 08:52:22;;;;;;;7.53;6.13;;;3.40;99.90;;;;;;6070282;23;20904;-77
2020/12/31 08:55:10;;;;;;;10.77;9.67;;;3.40;99.90;;;;;;6096667;23;20430;-76
2020/12/31 08:57:37;;;;;;;15.50;14.30;;;3.40;99.90;;;;;;6097098;23;20382;-76
2020/12/31 09:00:05;;;;;;;15.67;14.37;;;3.40;99.90;;;;;;6070940;23;20522;-76
2020/12/31 09:02:32;;;;;;;13.83;12.67;;;3.40;99.90;;;;;;6096806;23;20392;-76
2020/12/31 09:05:17;;;;;;;13.57;12.37;;;3.40;99.90;;;;;;6071324;23;20413;-76
2020/12/31 09:07:44;;;;;;;13.87;12.63;;;3.50;99.90;;;;;;6096756;23;20396;-77
2020/12/31 09:10:19;;;;;;;8.23;6.60;;;3.50;99.90;;;;;;6096046;23;20453;-77
2020/12/31 09:12:46;;;;;;;12.97;11.87;;;3.50;99.90;;;;;;6096783;23;20445;-77
2020/12/31 09:15:20;;;;;;;7.20;6.30;;;3.50;99.90;;;;;;6070973;23;20534;-77
2020/12/31 09:17:47;;;;;;;14.37;10.87;;;3.50;99.90;;;;;;6097329;23;20432;-77
2020/12/31 09:20:22;;;;;;;13.30;11.93;;;3.60;99.90;;;;;;6070641;23;20947;-77
2020/12/31 09:22:49;;;;;;;11.17;9.07;;;3.50;99.90;;;;;;6071481;23;20468;-77
2020/12/31 09:25:17;;;;;;;8.17;7.03;;;3.60;99.90;;;;;;6069226;23;20421;-76
2020/12/31 09:27:47;;;;;;;8.50;7.43;;;3.70;99.90;;;;;;6096256;23;20386;-77
2020/12/31 09:30:17;;;;;;;9.43;7.50;;;3.80;99.90;;;;;;6095933;23;20414;-77
2020/12/31 09:32:49;;;;;;;11.00;9.83;;;3.90;99.90;;;;;;6070772;23;20927;-77
2020/12/31 09:35:17;;;;;;;8.23;6.70;;;3.90;99.90;;;;;;6070892;23;20485;-77
2020/12/31 09:37:55;;;;;;;16.33;15.00;;;3.90;99.90;;;;;;6070630;23;20418;-77
2020/12/31 09:40:22;;;;;;;12.00;11.00;;;4.00;99.90;;;;;;6068768;23;20445;-77
2020/12/31 09:42:49;;;;;;;11.97;10.77;;;4.10;99.90;;;;;;6096527;23;20390;-76
2020/12/31 09:45:15;;;;;;;12.87;11.87;;;4.10;99.90;;;;;;6070738;23;20417;-76
2020/12/31 09:47:41;;;;;;;13.67;12.43;;;4.20;99.90;;;;;;6070823;23;20406;-77
2020/12/31 09:50:10;;;;;;;8.57;6.53;;;4.30;99.90;;;;;;6071651;23;20430;-76
2020/12/31 09:52:37;;;;;;;8.63;6.37;;;4.30;99.90;;;;;;6097228;23;20488;-77
2020/12/31 09:55:05;;;;;;;7.00;5.93;;;4.30;99.90;;;;;;6072383;23;20442;-77
2020/12/31 09:57:32;;;;;;;13.60;12.40;;;4.30;99.90;;;;;;6072273;23;20422;-77
2020/12/31 09:59:58;;;;;;;13.20;12.03;;;4.40;99.90;;;;;;6097263;23;20964;-77
2020/12/31 10:02:24;;;;;;;9.83;6.43;;;4.40;99.90;;;;;;6097133;23;20391;-76
2020/12/31 10:04:51;;;;;;;12.00;10.97;;;4.30;99.90;;;;;;6071538;23;20407;-77
2020/12/31 10:07:17;;;;;;;7.80;6.53;;;4.30;99.90;;;;;;6072142;23;20576;-76
2020/12/31 10:09:43;;;;;;;12.70;11.60;;;4.40;99.90;;;;;;6097563;23;20421;-77
2020/12/31 10:12:12;;;;;;;9.03;7.67;;;4.40;99.90;;;;;;6070835;23;20424;-76
2020/12/31 10:14:39;;;;;;;9.47;8.43;;;4.50;99.90;;;;;;6096676;23;20914;-76
2020/12/31 10:17:06;;;;;;;11.07;8.17;;;4.40;99.90;;;;;;6097574;23;20404;-77
2020/12/31 10:19:32;;;;;;;11.73;10.53;;;4.40;99.90;;;;;;6096526;23;20442;-77
2020/12/31 10:21:59;;;;;;;9.20;8.20;;;4.40;99.90;;;;;;6096068;23;20417;-77
2020/12/31 10:24:25;;;;;;;11.67;10.57;;;4.40;99.90;;;;;;6096461;23;20387;-77
2020/12/31 10:26:51;;;;;;;14.00;12.70;;;4.30;99.90;;;;;;6071327;23;20413;-76
2020/12/31 10:29:19;;;;;;;8.27;7.17;;;4.40;99.90;;;;;;6095596;23;20417;-77
2020/12/31 10:31:51;;;;;;;8.20;7.23;;;4.40;99.90;;;;;;6095722;23;20394;-76
2020/12/31 10:34:17;;;;;;;8.50;6.97;;;4.50;99.90;;;;;;6096051;23;20382;-77
2020/12/31 10:36:49;;;;;;;10.80;8.90;;;4.50;99.90;;;;;;6096176;23;20728;-77
2020/12/31 10:39:16;;;;;;;10.03;9.03;;;4.60;99.90;;;;;;6096812;23;20470;-76
2020/12/31 10:41:42;;;;;;;7.67;6.13;;;4.50;99.90;;;;;;6069452;23;20429;-77
2020/12/31 10:44:08;;;;;;;8.83;7.97;;;4.50;99.90;;;;;;6093852;23;20429;-76
2020/12/31 10:46:34;;;;;;;10.90;9.80;;;4.50;99.90;;;;;;6094248;23;20441;-77
2020/12/31 10:49:01;;;;;;;7.23;6.20;;;4.50;99.90;;;;;;6093733;23;20838;-77
2020/12/31 10:51:28;;;;;;;7.57;6.00;;;4.40;99.90;;;;;;6069793;23;20414;-77
2020/12/31 10:53:54;;;;;;;9.43;6.47;;;4.50;99.90;;;;;;6095914;23;20424;-77
2020/12/31 10:56:20;;;;;;;8.83;6.57;;;4.50;99.90;;;;;;6096398;23;20445;-76
2020/12/31 10:58:47;;;;;;;7.60;6.80;;;4.50;99.90;;;;;;6070329;23;20409;-76
2020/12/31 11:01:14;;;;;;;8.77;7.37;;;4.60;99.90;;;;;;6094108;23;20949;-77
2020/12/31 11:03:42;;;;;;;9.23;8.37;;;4.60;99.90;;;;;;6095984;23;20257;-76
2020/12/31 11:06:10;;;;;;;10.10;9.20;;;4.60;99.90;;;;;;6070329;23;20410;-77
2020/12/31 11:08:36;;;;;;;9.47;8.53;;;4.60;99.90;;;;;;6095113;23;20248;-77
2020/12/31 11:11:03;;;;;;;7.17;6.00;;;4.60;99.90;;;;;;6070441;23;20426;-77
2020/12/31 11:13:29;;;;;;;8.40;7.50;;;4.60;99.90;;;;;;6069947;23;20421;-76
2020/12/31 11:15:55;;;;;;;8.50;7.80;;;4.70;99.90;;;;;;6096138;23;20205;-76
2020/12/31 11:18:21;;;;;;;7.30;6.50;;;4.90;99.90;;;;;;6096228;23;20890;-76
2020/12/31 11:20:52;;;;;;;8.37;7.27;;;5.10;99.90;;;;;;6094144;23;20952;-77
2020/12/31 11:23:19;;;;;;;11.17;10.17;;;5.10;99.90;;;;;;6070194;23;20417;-77
2020/12/31 11:25:45;;;;;;;11.73;10.77;;;5.20;99.90;;;;;;6094717;23;20449;-77
2020/12/31 11:28:12;;;;;;;10.00;7.73;;;5.30;99.90;;;;;;6070243;23;20185;-76
2020/12/31 11:30:39;;;;;;;9.00;7.83;;;5.40;99.90;;;;;;6070003;23;20198;-77
2020/12/31 11:33:05;;;;;;;10.10;9.20;;;5.40;99.90;;;;;;6096365;23;20176;-77
2020/12/31 11:35:31;;;;;;;13.13;11.87;;;5.50;99.90;;;;;;6095329;23;20218;-77
2020/12/31 11:37:57;;;;;;;13.83;12.70;;;5.60;99.90;;;;;;6069912;23;20174;-77
2020/12/31 11:40:25;;;;;;;11.90;11.07;;;5.40;99.90;;;;;;6094041;23;20708;-77
2020/12/31 11:42:51;;;;;;;11.77;10.77;;;5.40;99.90;;;;;;6070118;23;20189;-77
2020/12/31 11:45:17;;;;;;;12.90;11.90;;;5.30;99.90;;;;;;6069983;23;20221;-77
2020/12/31 11:47:43;;;;;;;12.60;11.60;;;5.40;99.90;;;;;;6070003;23;20189;-77
2020/12/31 11:50:10;;;;;;;12.40;11.40;;;5.30;99.90;;;;;;6094796;23;20418;-77
2020/12/31 11:52:36;;;;;;;12.77;11.73;;;5.40;99.90;;;;;;6069513;23;20261;-77
2020/12/31 11:55:03;;;;;;;13.07;12.07;;;5.40;99.90;;;;;;6095215;23;20258;-75
2020/12/31 11:57:30;;;;;;;13.30;12.30;;;5.40;99.90;;;;;;6069676;23;20185;-77
2020/12/31 11:59:57;;;;;;;13.20;12.30;;;5.40;99.90;;;;;;6069616;23;20583;-77
2020/12/31 12:02:23;;;;;;;13.77;12.77;;;5.30;99.90;;;;;;6069952;23;20189;-76
2020/12/31 12:04:49;;;;;;;13.83;12.73;;;5.30;99.90;;;;;;6094251;23;20170;-76
2020/12/31 12:07:15;;;;;;;12.43;11.53;;;5.20;99.90;;;;;;6096113;23;20170;-76
2020/12/31 12:09:42;;;;;;;14.10;13.00;;;5.30;99.90;;;;;;6094182;23;20194;-76
2020/12/31 12:12:09;;;;;;;14.70;13.60;;;5.20;99.90;;;;;;6095286;23;20180;-75
2020/12/31 12:14:36;;;;;;;11.83;10.93;;;5.20;99.90;;;;;;6094974;23;20193;-76
2020/12/31 12:17:02;;;;;;;12.10;11.10;;;5.20;99.90;;;;;;6070016;23;20182;-76
2020/12/31 12:19:29;;;;;;;12.20;11.40;;;5.20;99.90;;;;;;6095119;23;20414;-78
2020/12/31 12:21:58;;;;;;;13.53;12.63;;;5.30;99.90;;;;;;6070928;23;20433;-77
2020/12/31 12:24:24;;;;;;;12.97;12.07;;;5.30;99.90;;;;;;6097089;23;20478;-77
2020/12/31 12:26:50;;;;;;;11.80;11.00;;;5.30;99.90;;;;;;6070786;23;20268;-78
2020/12/31 12:29:17;;;;;;;12.93;11.80;;;5.30;99.90;;;;;;6096443;23;20418;-77
2020/12/31 12:31:44;;;;;;;12.93;12.03;;;5.30;99.90;;;;;;6095221;23;20174;-77
2020/12/31 12:34:10;;;;;;;13.30;12.30;;;5.40;99.90;;;;;;6097063;23;20177;-77
2020/12/31 12:36:37;;;;;;;12.40;11.20;;;5.30;99.90;;;;;;6070942;23;20210;-77
2020/12/31 12:39:04;;;;;;;11.70;10.90;;;5.40;99.90;;;;;;6095952;23;20657;-78
2020/12/31 12:41:30;;;;;;;11.60;10.70;;;5.30;99.90;;;;;;6070931;23;20872;-77
2020/12/31 12:43:57;;;;;;;11.70;10.90;;;5.20;99.90;;;;;;6071378;23;20965;-77
2020/12/31 12:46:23;;;;;;;11.43;10.70;;;5.20;99.90;;;;;;6071379;23;20433;-77